sensor_id;sensor_type;location;lat;lon;timestamp;P1;durP1;ratioP1;P2;durP2;ratioP2
10497;SDS011;5296;51.060;13.750;2022-09-21T00:04:23;4.25;;;3.45;;
10497;SDS011;5296;51.060;13.750;2022-09-21T00:09:25;3.63;;;3.33;;
10497;SDS011;5296;51.060;13.750;2022-09-21T00:14:27;3.65;;;3.28;;
10497;SDS011;5296;51.060;13.750;2022-09-21T00:19:28;4.03;;;3.63;;
10497;SDS011;5296;51.060;13.750;2022-09-21T00:24:30;3.95;;;3.25;;
10497;SDS011;5296;51.060;13.750;2022-09-21T00:29:32;3.88;;;3.30;;
10497;SDS011;5296;51.060;13.750;2022-09-21T00:34:33;5.55;;;3.60;;
10497;SDS011;5296;51.060;13.750;2022-09-21T00:39:35;4.30;;;3.60;;
10497;SDS011;5296;51.060;13.750;2022-09-21T00:44:36;5.30;;;3.20;;
10497;SDS011;5296;51.060;13.750;2022-09-21T00:49:38;3.88;;;3.20;;
10497;SDS011;5296;51.060;13.750;2022-09-21T00:54:43;3.55;;;3.25;;
10497;SDS011;5296;51.060;13.750;2022-09-21T00:59:47;4.07;;;3.20;;
10497;SDS011;5296;51.060;13.750;2022-09-21T01:04:51;3.30;;;3.00;;
10497;SDS011;5296;51.060;13.750;2022-09-21T01:09:56;3.50;;;3.20;;
10497;SDS011;5296;51.060;13.750;2022-09-21T01:15:18;4.18;;;2.95;;
10497;SDS011;5296;51.060;13.750;2022-09-21T01:21:05;3.80;;;3.38;;
10497;SDS011;5296;51.060;13.750;2022-09-21T01:26:14;3.97;;;2.90;;
10497;SDS011;5296;51.060;13.750;2022-09-21T01:31:30;4.18;;;3.55;;
10497;SDS011;5296;51.060;13.750;2022-09-21T01:36:36;4.18;;;3.45;;
10497;SDS011;5296;51.060;13.750;2022-09-21T01:41:40;3.85;;;2.97;;
10497;SDS011;5296;51.060;13.750;2022-09-21T01:46:43;4.55;;;3.00;;
10497;SDS011;5296;51.060;13.750;2022-09-21T01:51:47;4.95;;;3.42;;
10497;SDS011;5296;51.060;13.750;2022-09-21T01:57:06;3.58;;;3.28;;
10497;SDS011;5296;51.060;13.750;2022-09-21T02:02:16;4.82;;;3.40;;
10497;SDS011;5296;51.060;13.750;2022-09-21T02:07:19;3.47;;;3.17;;
10497;SDS011;5296;51.060;13.750;2022-09-21T02:12:21;3.75;;;3.00;;
10497;SDS011;5296;51.060;13.750;2022-09-21T02:17:31;3.88;;;3.35;;
10497;SDS011;5296;51.060;13.750;2022-09-21T02:22:44;3.13;;;2.75;;
10497;SDS011;5296;51.060;13.750;2022-09-21T02:28:31;2.85;;;2.60;;
10497;SDS011;5296;51.060;13.750;2022-09-21T02:33:40;2.40;;;2.20;;
10497;SDS011;5296;51.060;13.750;2022-09-21T02:38:55;4.85;;;3.17;;
10497;SDS011;5296;51.060;13.750;2022-09-21T02:44:18;3.60;;;2.50;;
10497;SDS011;5296;51.060;13.750;2022-09-21T02:49:37;2.65;;;2.45;;
10497;SDS011;5296;51.060;13.750;2022-09-21T02:54:43;3.00;;;2.35;;
10497;SDS011;5296;51.060;13.750;2022-09-21T02:59:48;3.38;;;2.50;;
10497;SDS011;5296;51.060;13.750;2022-09-21T03:04:50;2.55;;;2.35;;
10497;SDS011;5296;51.060;13.750;2022-09-21T03:09:52;2.40;;;2.20;;
10497;SDS011;5296;51.060;13.750;2022-09-21T03:14:54;3.03;;;2.55;;
10497;SDS011;5296;51.060;13.750;2022-09-21T03:19:56;2.55;;;2.35;;
10497;SDS011;5296;51.060;13.750;2022-09-21T03:24:57;3.15;;;2.40;;
10497;SDS011;5296;51.060;13.750;2022-09-21T03:29:59;5.43;;;3.10;;
10497;SDS011;5296;51.060;13.750;2022-09-21T03:35:02;3.00;;;2.70;;
10497;SDS011;5296;51.060;13.750;2022-09-21T03:40:05;3.03;;;2.75;;
10497;SDS011;5296;51.060;13.750;2022-09-21T03:45:07;3.85;;;3.25;;
10497;SDS011;5296;51.060;13.750;2022-09-21T03:50:10;4.32;;;3.28;;
10497;SDS011;5296;51.060;13.750;2022-09-21T03:55:12;4.80;;;3.25;;
10497;SDS011;5296;51.060;13.750;2022-09-21T04:00:14;4.35;;;3.33;;
10497;SDS011;5296;51.060;13.750;2022-09-21T04:05:16;3.65;;;3.13;;
10497;SDS011;5296;51.060;13.750;2022-09-21T04:10:18;5.10;;;3.75;;
10497;SDS011;5296;51.060;13.750;2022-09-21T04:15:21;4.85;;;3.58;;
10497;SDS011;5296;51.060;13.750;2022-09-21T04:20:23;6.72;;;4.00;;
10497;SDS011;5296;51.060;13.750;2022-09-21T04:25:25;4.80;;;3.90;;
10497;SDS011;5296;51.060;13.750;2022-09-21T04:30:26;5.88;;;4.25;;
10497;SDS011;5296;51.060;13.750;2022-09-21T04:35:29;4.30;;;3.90;;
10497;SDS011;5296;51.060;13.750;2022-09-21T04:40:31;5.45;;;3.80;;
10497;SDS011;5296;51.060;13.750;2022-09-21T04:45:32;5.57;;;4.03;;
10497;SDS011;5296;51.060;13.750;2022-09-21T04:50:36;4.75;;;4.13;;
10497;SDS011;5296;51.060;13.750;2022-09-21T04:55:41;5.43;;;3.90;;
10497;SDS011;5296;51.060;13.750;2022-09-21T05:00:47;6.85;;;4.85;;
10497;SDS011;5296;51.060;13.750;2022-09-21T05:05:52;5.70;;;4.30;;
10497;SDS011;5296;51.060;13.750;2022-09-21T05:10:55;6.50;;;4.72;;
10497;SDS011;5296;51.060;13.750;2022-09-21T05:15:56;7.82;;;4.50;;
10497;SDS011;5296;51.060;13.750;2022-09-21T05:20:59;5.28;;;4.78;;
10497;SDS011;5296;51.060;13.750;2022-09-21T05:26:01;5.68;;;5.18;;
10497;SDS011;5296;51.060;13.750;2022-09-21T05:31:04;6.13;;;4.72;;
10497;SDS011;5296;51.060;13.750;2022-09-21T05:41:38;7.93;;;5.03;;
10497;SDS011;5296;51.060;13.750;2022-09-21T05:47:03;6.43;;;5.10;;
10497;SDS011;5296;51.060;13.750;2022-09-21T05:52:08;6.50;;;5.18;;
10497;SDS011;5296;51.060;13.750;2022-09-21T06:08:05;6.85;;;4.93;;
10497;SDS011;5296;51.060;13.750;2022-09-21T06:13:06;10.00;;;5.72;;
10497;SDS011;5296;51.060;13.750;2022-09-21T06:18:08;9.23;;;5.00;;
10497;SDS011;5296;51.060;13.750;2022-09-21T06:23:17;8.68;;;5.28;;
10497;SDS011;5296;51.060;13.750;2022-09-21T06:28:18;7.88;;;5.53;;
10497;SDS011;5296;51.060;13.750;2022-09-21T06:33:20;6.13;;;4.90;;
10497;SDS011;5296;51.060;13.750;2022-09-21T06:38:24;7.43;;;5.43;;
10497;SDS011;5296;51.060;13.750;2022-09-21T06:43:26;6.85;;;5.35;;
10497;SDS011;5296;51.060;13.750;2022-09-21T06:48:28;8.65;;;5.10;;
10497;SDS011;5296;51.060;13.750;2022-09-21T06:53:31;8.68;;;5.25;;
10497;SDS011;5296;51.060;13.750;2022-09-21T06:58:34;5.55;;;4.97;;
10497;SDS011;5296;51.060;13.750;2022-09-21T07:03:36;7.13;;;5.25;;
10497;SDS011;5296;51.060;13.750;2022-09-21T07:08:39;6.80;;;4.70;;
10497;SDS011;5296;51.060;13.750;2022-09-21T07:14:00;5.95;;;5.15;;
10497;SDS011;5296;51.060;13.750;2022-09-21T07:19:02;5.32;;;4.82;;
10497;SDS011;5296;51.060;13.750;2022-09-21T07:24:11;7.85;;;4.45;;
10497;SDS011;5296;51.060;13.750;2022-09-21T07:29:13;6.30;;;5.10;;
10497;SDS011;5296;51.060;13.750;2022-09-21T07:34:15;6.22;;;5.18;;
10497;SDS011;5296;51.060;13.750;2022-09-21T07:39:16;8.43;;;5.40;;
10497;SDS011;5296;51.060;13.750;2022-09-21T07:44:18;8.15;;;5.75;;
10497;SDS011;5296;51.060;13.750;2022-09-21T07:49:22;8.38;;;5.20;;
10497;SDS011;5296;51.060;13.750;2022-09-21T07:54:24;6.88;;;5.03;;
10497;SDS011;5296;51.060;13.750;2022-09-21T07:59:25;8.60;;;4.65;;
10497;SDS011;5296;51.060;13.750;2022-09-21T08:04:27;6.90;;;4.40;;
10497;SDS011;5296;51.060;13.750;2022-09-21T08:09:29;7.18;;;4.65;;
10497;SDS011;5296;51.060;13.750;2022-09-21T08:14:30;8.27;;;4.68;;
10497;SDS011;5296;51.060;13.750;2022-09-21T08:19:32;5.78;;;4.25;;
10497;SDS011;5296;51.060;13.750;2022-09-21T08:24:34;5.97;;;4.57;;
10497;SDS011;5296;51.060;13.750;2022-09-21T08:29:36;5.97;;;4.38;;
10497;SDS011;5296;51.060;13.750;2022-09-21T08:34:38;4.18;;;3.78;;
10497;SDS011;5296;51.060;13.750;2022-09-21T08:39:40;6.50;;;4.13;;
10497;SDS011;5296;51.060;13.750;2022-09-21T08:44:42;5.50;;;3.75;;
10497;SDS011;5296;51.060;13.750;2022-09-21T08:49:52;6.03;;;3.42;;
10497;SDS011;5296;51.060;13.750;2022-09-21T08:54:58;3.88;;;3.45;;
10497;SDS011;5296;51.060;13.750;2022-09-21T09:00:05;4.95;;;3.10;;
10497;SDS011;5296;51.060;13.750;2022-09-21T09:10:38;3.80;;;2.80;;
10497;SDS011;5296;51.060;13.750;2022-09-21T09:21:14;2.85;;;2.03;;
10497;SDS011;5296;51.060;13.750;2022-09-21T09:31:46;4.03;;;2.53;;
10497;SDS011;5296;51.060;13.750;2022-09-21T09:36:51;5.47;;;3.45;;
10497;SDS011;5296;51.060;13.750;2022-09-21T09:52:48;4.03;;;2.30;;
10497;SDS011;5296;51.060;13.750;2022-09-21T09:57:54;3.90;;;2.78;;
10497;SDS011;5296;51.060;13.750;2022-09-21T10:02:57;2.75;;;2.50;;
10497;SDS011;5296;51.060;13.750;2022-09-21T10:07:59;2.95;;;2.65;;
10497;SDS011;5296;51.060;13.750;2022-09-21T10:24:06;3.25;;;1.90;;
10497;SDS011;5296;51.060;13.750;2022-09-21T10:34:24;2.90;;;2.00;;
10497;SDS011;5296;51.060;13.750;2022-09-21T10:39:31;6.70;;;1.73;;
10497;SDS011;5296;51.060;13.750;2022-09-21T10:49:41;1.95;;;1.52;;
10497;SDS011;5296;51.060;13.750;2022-09-21T10:54:46;3.05;;;1.67;;
10497;SDS011;5296;51.060;13.750;2022-09-21T10:59:49;2.85;;;1.50;;
10497;SDS011;5296;51.060;13.750;2022-09-21T11:04:52;2.50;;;1.60;;
10497;SDS011;5296;51.060;13.750;2022-09-21T11:10:18;1.98;;;1.67;;
10497;SDS011;5296;51.060;13.750;2022-09-21T11:20:54;1.50;;;1.40;;
10497;SDS011;5296;51.060;13.750;2022-09-21T11:26:01;2.60;;;1.50;;
10497;SDS011;5296;51.060;13.750;2022-09-21T11:36:51;1.60;;;1.15;;
10497;SDS011;5296;51.060;13.750;2022-09-21T11:42:18;3.15;;;1.70;;
10497;SDS011;5296;51.060;13.750;2022-09-21T11:58:07;3.63;;;1.92;;
10497;SDS011;5296;51.060;13.750;2022-09-21T12:03:37;2.80;;;1.60;;
10497;SDS011;5296;51.060;13.750;2022-09-21T12:14:24;2.55;;;1.48;;
10497;SDS011;5296;51.060;13.750;2022-09-21T12:19:37;4.10;;;1.67;;
10497;SDS011;5296;51.060;13.750;2022-09-21T12:24:47;3.55;;;1.85;;
10497;SDS011;5296;51.060;13.750;2022-09-21T12:29:52;5.03;;;1.70;;
10497;SDS011;5296;51.060;13.750;2022-09-21T12:35:01;1.77;;;1.40;;
10497;SDS011;5296;51.060;13.750;2022-09-21T12:40:14;1.42;;;1.20;;
10497;SDS011;5296;51.060;13.750;2022-09-21T12:45:26;2.42;;;1.38;;
10497;SDS011;5296;51.060;13.750;2022-09-21T12:50:43;3.50;;;1.33;;
10497;SDS011;5296;51.060;13.750;2022-09-21T12:55:58;3.22;;;1.58;;
10497;SDS011;5296;51.060;13.750;2022-09-21T13:12:07;1.90;;;1.60;;
10497;SDS011;5296;51.060;13.750;2022-09-21T13:17:19;3.35;;;1.60;;
10497;SDS011;5296;51.060;13.750;2022-09-21T13:22:24;6.18;;;2.08;;
10497;SDS011;5296;51.060;13.750;2022-09-21T13:32:59;2.67;;;1.60;;
10497;SDS011;5296;51.060;13.750;2022-09-21T13:54:16;4.13;;;1.50;;
10497;SDS011;5296;51.060;13.750;2022-09-21T13:59:20;3.47;;;1.58;;
10497;SDS011;5296;51.060;13.750;2022-09-21T14:09:29;2.95;;;1.27;;
10497;SDS011;5296;51.060;13.750;2022-09-21T14:14:36;2.10;;;1.50;;
10497;SDS011;5296;51.060;13.750;2022-09-21T14:24:43;4.80;;;1.48;;
10497;SDS011;5296;51.060;13.750;2022-09-21T14:29:49;1.83;;;1.73;;
10497;SDS011;5296;51.060;13.750;2022-09-21T14:34:58;3.22;;;1.60;;
10497;SDS011;5296;51.060;13.750;2022-09-21T14:40:15;1.50;;;1.30;;
10497;SDS011;5296;51.060;13.750;2022-09-21T14:45:19;1.60;;;1.50;;
10497;SDS011;5296;51.060;13.750;2022-09-21T15:06:26;2.92;;;1.50;;
10497;SDS011;5296;51.060;13.750;2022-09-21T15:11:55;2.05;;;1.83;;
10497;SDS011;5296;51.060;13.750;2022-09-21T15:17:17;4.57;;;3.90;;
10497;SDS011;5296;51.060;13.750;2022-09-21T15:22:24;3.17;;;2.75;;
10497;SDS011;5296;51.060;13.750;2022-09-21T15:27:28;1.40;;;1.30;;
10497;SDS011;5296;51.060;13.750;2022-09-21T15:32:40;1.33;;;1.30;;
10497;SDS011;5296;51.060;13.750;2022-09-21T15:37:43;1.60;;;1.50;;
10497;SDS011;5296;51.060;13.750;2022-09-21T15:48:06;2.42;;;1.40;;
10497;SDS011;5296;51.060;13.750;2022-09-21T15:53:20;2.80;;;1.52;;
10497;SDS011;5296;51.060;13.750;2022-09-21T16:03:37;2.50;;;1.50;;
10497;SDS011;5296;51.060;13.750;2022-09-21T16:08:40;2.33;;;1.60;;
10497;SDS011;5296;51.060;13.750;2022-09-21T16:13:42;2.42;;;1.63;;
10497;SDS011;5296;51.060;13.750;2022-09-21T16:19:03;2.78;;;1.90;;
10497;SDS011;5296;51.060;13.750;2022-09-21T16:24:18;1.50;;;1.40;;
10497;SDS011;5296;51.060;13.750;2022-09-21T16:29:25;2.70;;;1.67;;
10497;SDS011;5296;51.060;13.750;2022-09-21T16:34:31;2.67;;;1.98;;
10497;SDS011;5296;51.060;13.750;2022-09-21T16:39:36;2.83;;;2.20;;
10497;SDS011;5296;51.060;13.750;2022-09-21T16:44:37;2.25;;;1.92;;
10497;SDS011;5296;51.060;13.750;2022-09-21T16:49:41;2.53;;;1.98;;
10497;SDS011;5296;51.060;13.750;2022-09-21T16:54:43;1.98;;;1.73;;
10497;SDS011;5296;51.060;13.750;2022-09-21T16:59:44;3.88;;;2.20;;
10497;SDS011;5296;51.060;13.750;2022-09-21T17:04:46;2.58;;;2.38;;
10497;SDS011;5296;51.060;13.750;2022-09-21T17:09:48;3.17;;;2.10;;
10497;SDS011;5296;51.060;13.750;2022-09-21T17:14:51;2.83;;;2.50;;
10497;SDS011;5296;51.060;13.750;2022-09-21T17:19:53;19.95;;;10.35;;
10497;SDS011;5296;51.060;13.750;2022-09-21T17:24:54;2.63;;;2.28;;
10497;SDS011;5296;51.060;13.750;2022-09-21T17:29:56;2.85;;;2.55;;
10497;SDS011;5296;51.060;13.750;2022-09-21T17:40:20;2.70;;;2.50;;
10497;SDS011;5296;51.060;13.750;2022-09-21T17:51:04;3.42;;;3.13;;
10497;SDS011;5296;51.060;13.750;2022-09-21T17:56:17;3.25;;;2.95;;
10497;SDS011;5296;51.060;13.750;2022-09-21T18:01:43;4.22;;;3.83;;
10497;SDS011;5296;51.060;13.750;2022-09-21T18:06:45;5.13;;;3.78;;
10497;SDS011;5296;51.060;13.750;2022-09-21T18:12:24;4.30;;;3.35;;
10497;SDS011;5296;51.060;13.750;2022-09-21T18:17:42;4.88;;;3.92;;
10497;SDS011;5296;51.060;13.750;2022-09-21T18:22:55;7.60;;;4.28;;
10497;SDS011;5296;51.060;13.750;2022-09-21T18:28:08;5.88;;;4.30;;
10497;SDS011;5296;51.060;13.750;2022-09-21T18:38:58;7.85;;;4.90;;
10497;SDS011;5296;51.060;13.750;2022-09-21T18:44:11;5.47;;;4.97;;
10497;SDS011;5296;51.060;13.750;2022-09-21T18:49:23;5.10;;;4.50;;
10497;SDS011;5296;51.060;13.750;2022-09-21T18:54:35;11.18;;;5.13;;
10497;SDS011;5296;51.060;13.750;2022-09-21T18:59:37;5.50;;;4.35;;
10497;SDS011;5296;51.060;13.750;2022-09-21T19:04:42;4.63;;;3.83;;
10497;SDS011;5296;51.060;13.750;2022-09-21T19:15:22;4.72;;;4.32;;
10497;SDS011;5296;51.060;13.750;2022-09-21T19:20:48;5.95;;;4.40;;
10497;SDS011;5296;51.060;13.750;2022-09-21T19:32:17;6.03;;;4.63;;
10497;SDS011;5296;51.060;13.750;2022-09-21T19:37:23;7.60;;;4.75;;
10497;SDS011;5296;51.060;13.750;2022-09-21T19:42:26;6.60;;;4.63;;
10497;SDS011;5296;51.060;13.750;2022-09-21T19:47:38;6.78;;;3.97;;
10497;SDS011;5296;51.060;13.750;2022-09-21T19:52:44;4.13;;;3.55;;
10497;SDS011;5296;51.060;13.750;2022-09-21T19:57:46;6.65;;;4.18;;
10497;SDS011;5296;51.060;13.750;2022-09-21T20:03:14;4.10;;;3.55;;
10497;SDS011;5296;51.060;13.750;2022-09-21T20:08:27;4.20;;;3.80;;
10497;SDS011;5296;51.060;13.750;2022-09-21T20:19:06;4.10;;;3.70;;
10497;SDS011;5296;51.060;13.750;2022-09-21T20:24:23;4.68;;;3.78;;
10497;SDS011;5296;51.060;13.750;2022-09-21T20:29:28;4.68;;;3.92;;
10497;SDS011;5296;51.060;13.750;2022-09-21T20:34:29;4.70;;;3.78;;
10497;SDS011;5296;51.060;13.750;2022-09-21T20:39:31;5.30;;;3.75;;
10497;SDS011;5296;51.060;13.750;2022-09-21T20:44:33;4.78;;;3.50;;
10497;SDS011;5296;51.060;13.750;2022-09-21T20:49:34;4.65;;;3.67;;
10497;SDS011;5296;51.060;13.750;2022-09-21T20:54:36;5.78;;;3.80;;
10497;SDS011;5296;51.060;13.750;2022-09-21T20:59:37;5.00;;;3.92;;
10497;SDS011;5296;51.060;13.750;2022-09-21T21:04:39;5.25;;;4.10;;
10497;SDS011;5296;51.060;13.750;2022-09-21T21:09:41;4.15;;;3.83;;
10497;SDS011;5296;51.060;13.750;2022-09-21T21:14:43;4.20;;;3.80;;
10497;SDS011;5296;51.060;13.750;2022-09-21T21:19:45;5.25;;;4.63;;
10497;SDS011;5296;51.060;13.750;2022-09-21T21:24:47;6.95;;;5.20;;
10497;SDS011;5296;51.060;13.750;2022-09-21T21:29:49;6.43;;;5.00;;
10497;SDS011;5296;51.060;13.750;2022-09-21T21:34:51;6.03;;;5.00;;
10497;SDS011;5296;51.060;13.750;2022-09-21T21:39:54;6.93;;;5.43;;
10497;SDS011;5296;51.060;13.750;2022-09-21T21:44:56;6.03;;;5.53;;
10497;SDS011;5296;51.060;13.750;2022-09-21T21:49:59;6.40;;;5.38;;
10497;SDS011;5296;51.060;13.750;2022-09-21T21:55:00;6.50;;;5.18;;
10497;SDS011;5296;51.060;13.750;2022-09-21T22:00:03;6.20;;;5.60;;
10497;SDS011;5296;51.060;13.750;2022-09-21T22:05:06;5.75;;;5.25;;
10497;SDS011;5296;51.060;13.750;2022-09-21T22:10:07;6.22;;;5.63;;
10497;SDS011;5296;51.060;13.750;2022-09-21T22:15:09;6.53;;;5.50;;
10497;SDS011;5296;51.060;13.750;2022-09-21T22:20:11;7.03;;;5.50;;
10497;SDS011;5296;51.060;13.750;2022-09-21T22:25:13;7.07;;;5.88;;
10497;SDS011;5296;51.060;13.750;2022-09-21T22:30:14;6.55;;;5.95;;
10497;SDS011;5296;51.060;13.750;2022-09-21T22:35:16;6.80;;;6.05;;
10497;SDS011;5296;51.060;13.750;2022-09-21T22:40:18;6.82;;;6.22;;
10497;SDS011;5296;51.060;13.750;2022-09-21T22:45:20;6.53;;;5.82;;
10497;SDS011;5296;51.060;13.750;2022-09-21T22:50:22;6.13;;;5.18;;
10497;SDS011;5296;51.060;13.750;2022-09-21T22:55:23;5.72;;;5.22;;
10497;SDS011;5296;51.060;13.750;2022-09-21T23:00:25;6.72;;;5.78;;
10497;SDS011;5296;51.060;13.750;2022-09-21T23:05:26;6.97;;;5.53;;
10497;SDS011;5296;51.060;13.750;2022-09-21T23:10:28;7.38;;;5.88;;
10497;SDS011;5296;51.060;13.750;2022-09-21T23:15:30;5.80;;;5.20;;
10497;SDS011;5296;51.060;13.750;2022-09-21T23:20:31;8.50;;;5.43;;
10497;SDS011;5296;51.060;13.750;2022-09-21T23:25:33;6.65;;;4.88;;
10497;SDS011;5296;51.060;13.750;2022-09-21T23:30:35;7.68;;;4.80;;
10497;SDS011;5296;51.060;13.750;2022-09-21T23:35:39;4.93;;;4.30;;
10497;SDS011;5296;51.060;13.750;2022-09-21T23:40:41;4.95;;;4.45;;
10497;SDS011;5296;51.060;13.750;2022-09-21T23:45:43;4.70;;;4.30;;
10497;SDS011;5296;51.060;13.750;2022-09-21T23:50:44;5.22;;;4.72;;
10497;SDS011;5296;51.060;13.750;2022-09-21T23:55:46;5.00;;;4.40;;
